Time;durP1;ratioP1;P1;durP2;ratioP2;P2;SDS_P1;SDS_P2;PMS_P1;PMS_P2;Temp;Humidity;BMP_temperature;BMP_pressure;BME280_temperature;BME280_humidity;BME280_pressure;Samples;Min_cycle;Max_cycle;Signal;HPM_P1;HPM_P2
2023/12/26 00:08:03;;;;;;;16.67;7.10;;;;;;;20.34;53.93;96161.31;21230503;27;20047;-57
2023/12/26 00:18:22;;;;;;;14.95;7.20;;;;;;;20.34;54.00;96155.91;21228977;27;20043;-57
2023/12/26 00:28:41;;;;;;;15.90;6.93;;;;;;;20.29;53.86;96148.84;21164419;27;20047;-58
2023/12/26 00:39:01;;;;;;;16.63;7.20;;;;;;;20.28;53.88;96138.38;21192346;27;20407;-58
2023/12/26 00:49:20;;;;;;;13.90;7.00;;;;;;;20.24;53.76;96143.66;21202518;27;20476;-56
2023/12/26 00:59:40;;;;;;;15.25;6.38;;;;;;;20.19;53.69;96141.22;21195077;27;20055;-56
2023/12/26 01:10:02;;;;;;;15.18;6.78;;;;;;;20.18;53.91;96142.34;21158599;27;20052;-58
2023/12/26 01:20:22;;;;;;;13.55;6.07;;;;;;;20.14;53.79;96141.47;21190669;27;20051;-58
2023/12/26 01:30:42;;;;;;;12.35;5.93;;;;;;;20.11;53.82;96137.53;21157755;27;20052;-57
2023/12/26 01:41:02;;;;;;;10.68;4.93;;;;;;;20.07;53.82;96133.13;21196222;27;20473;-56
2023/12/26 01:51:22;;;;;;;12.25;5.20;;;;;;;20.01;53.83;96121.78;21185428;27;20039;-57
2023/12/26 02:01:42;;;;;;;9.98;5.55;;;;;;;19.98;53.72;96116.28;21169128;27;20047;-57
2023/12/26 02:12:02;;;;;;;9.52;5.18;;;;;;;19.98;53.79;96100.06;21178668;27;20551;-56
2023/12/26 02:22:22;;;;;;;10.32;4.88;;;;;;;19.93;53.75;96096.47;21153806;27;20042;-57
2023/12/26 02:32:42;;;;;;;8.20;4.60;;;;;;;19.91;53.76;96079.00;21188325;27;20051;-57
2023/12/26 02:43:02;;;;;;;8.70;4.82;;;;;;;19.87;53.74;96062.69;21156896;27;20130;-56
2023/12/26 02:53:22;;;;;;;9.18;4.47;;;;;;;19.84;53.77;96079.59;21195051;27;20035;-57
2023/12/26 03:03:41;;;;;;;11.40;4.57;;;;;;;19.80;53.68;96061.69;21169564;28;20043;-58
2023/12/26 03:14:01;;;;;;;11.20;4.65;;;;;;;19.79;53.68;96063.63;21194174;28;20048;-58
2023/12/26 03:24:20;;;;;;;9.45;4.47;;;;;;;19.76;53.49;96056.22;21188602;28;20077;-58
2023/12/26 03:34:40;;;;;;;8.40;4.40;;;;;;;19.73;53.78;96057.66;21173238;28;20407;-57
2023/12/26 03:45:00;;;;;;;7.82;4.30;;;;;;;19.71;53.77;96053.72;21153853;28;20059;-56
2023/12/26 03:55:19;;;;;;;8.07;3.60;;;;;;;19.68;53.55;96043.59;21204694;27;20496;-57
2023/12/26 04:05:39;;;;;;;6.85;4.05;;;;;;;19.66;53.68;96045.84;21187672;27;20502;-57
2023/12/26 04:15:59;;;;;;;7.60;3.95;;;;;;;19.64;53.65;96048.91;21213288;27;20048;-57
2023/12/26 04:26:19;;;;;;;7.15;3.60;;;;;;;19.63;53.70;96047.31;21166025;27;20051;-57
2023/12/26 04:36:38;;;;;;;5.53;2.92;;;;;;;19.62;53.54;96040.34;21201609;27;20052;-57
2023/12/26 04:46:59;;;;;;;7.45;3.25;;;;;;;19.59;53.59;96041.03;21193301;27;20068;-57
2023/12/26 04:57:18;;;;;;;5.30;3.40;;;;;;;19.55;53.43;96053.66;21174323;27;20050;-57
2023/12/26 05:07:38;;;;;;;6.32;3.20;;;;;;;19.53;53.58;96043.19;21197326;27;20056;-57
2023/12/26 05:17:58;;;;;;;5.25;2.80;;;;;;;19.51;53.46;96040.03;21169741;27;20119;-57
2023/12/26 05:28:18;;;;;;;6.57;3.53;;;;;;;19.47;53.64;96047.25;21138655;27;20686;-56
2023/12/26 05:38:38;;;;;;;7.63;3.28;;;;;;;19.49;53.62;96077.41;21176828;27;20036;-57
2023/12/26 05:48:58;;;;;;;6.70;3.38;;;;;;;19.47;53.59;96078.91;21138169;27;20052;-58
2023/12/26 05:59:17;;;;;;;4.60;2.60;;;;;;;19.42;53.79;96079.91;21179034;27;20403;-57
2023/12/26 06:09:37;;;;;;;4.38;2.55;;;;;;;19.42;53.89;96101.50;21148138;27;20044;-56
2023/12/26 06:19:57;;;;;;;4.65;2.63;;;;;;;19.42;53.95;96106.91;21106965;27;20047;-58
2023/12/26 06:30:16;;;;;;;3.15;2.40;;;;;;;19.45;54.40;96103.53;21121532;27;20063;-58
2023/12/26 06:40:36;;;;;;;4.65;2.92;;;;;;;19.45;54.67;96124.38;21150474;27;20055;-57
2023/12/26 06:50:55;;;;;;;5.72;2.75;;;;;;;19.45;54.71;96181.88;21154891;27;20047;-57
2023/12/26 07:01:15;;;;;;;6.50;2.80;;;;;;;19.46;54.85;96171.84;21137226;28;20043;-56
2023/12/26 07:11:36;;;;;;;5.07;2.17;;;;;;;19.46;55.25;96186.13;21146518;27;20044;-57
2023/12/26 07:21:56;;;;;;;6.05;2.40;;;;;;;19.45;55.55;96208.88;21113054;28;20059;-58
2023/12/26 07:32:15;;;;;;;6.93;2.15;;;;;;;19.44;55.64;96226.22;21117910;28;20407;-57
2023/12/26 07:42:35;;;;;;;2.97;2.38;;;;;;;19.44;55.94;96247.03;21124905;27;20679;-58
2023/12/26 07:52:55;;;;;;;3.92;1.92;;;;;;;19.43;56.00;96265.16;21155953;27;20047;-57
2023/12/26 08:03:15;;;;;;;3.78;2.40;;;;;;;19.44;56.17;96258.63;21136176;27;20047;-57
2023/12/26 08:13:35;;;;;;;3.15;2.30;;;;;;;19.42;56.05;96274.38;21167975;27;20040;-57
2023/12/26 08:23:55;;;;;;;4.07;2.20;;;;;;;19.41;56.35;96297.13;21139903;27;20485;-57
2023/12/26 08:34:15;;;;;;;3.65;1.88;;;;;;;19.40;55.34;96313.66;21150129;27;20043;-57
2023/12/26 08:44:34;;;;;;;3.85;1.80;;;;;;;19.37;55.03;96304.31;21151340;27;20109;-57
2023/12/26 08:54:54;;;;;;;3.33;1.75;;;;;;;19.37;54.63;96320.53;21153802;27;20058;-58
2023/12/26 09:05:13;;;;;;;2.67;1.73;;;;;;;19.41;55.00;96324.13;21194645;27;20048;-58
2023/12/26 09:15:33;;;;;;;2.97;1.70;;;;;;;19.39;54.84;96349.91;21154623;27;20497;-57
2023/12/26 09:25:53;;;;;;;5.43;1.40;;;;;;;19.34;54.32;96381.38;21109021;27;20058;-57
2023/12/26 09:36:12;;;;;;;2.47;1.40;;;;;;;19.34;53.97;96380.59;21142611;27;20055;-58
2023/12/26 09:46:32;;;;;;;4.18;1.38;;;;;;;19.35;53.64;96391.09;21126559;27;20043;-58
2023/12/26 09:56:52;;;;;;;5.43;1.20;;;;;;;19.38;54.13;96397.72;21130547;27;20052;-59
2023/12/26 10:07:14;;;;;;;2.42;1.30;;;;;;;19.37;54.05;96412.38;21125945;27;20100;-58
2023/12/26 10:17:34;;;;;;;4.95;1.30;;;;;;;19.40;54.12;96416.31;21168286;27;20047;-58
2023/12/26 10:27:58;;;;;;;8.05;1.50;;;;;;;19.38;54.60;96419.34;21190946;27;20059;-55
2023/12/26 10:38:17;;;;;;;5.38;1.42;;;;;;;19.34;54.74;96430.00;21138833;28;20066;-58
2023/12/26 10:48:39;;;;;;;3.70;1.30;;;;;;;19.32;54.71;96415.25;21112213;27;20080;-58
2023/12/26 10:59:00;;;;;;;3.13;1.27;;;;;;;19.24;50.35;96410.72;21127574;28;20057;-59
2023/12/26 11:09:20;;;;;;;4.57;1.50;;;;;;;19.11;52.79;96443.09;21186411;27;20420;-58
2023/12/26 11:19:39;;;;;;;8.60;2.40;;;;;;;19.17;52.15;96457.97;21082861;28;20508;-58
2023/12/26 11:29:59;;;;;;;17.10;3.83;;;;;;;19.22;51.57;96464.28;21148386;28;20055;-58
2023/12/26 11:40:18;;;;;;;10.20;3.88;;;;;;;19.27;51.63;96488.41;21192676;28;20035;-58
2023/12/26 11:50:38;;;;;;;14.00;4.07;;;;;;;19.30;51.80;96480.41;21154940;28;20051;-58
2023/12/26 12:00:57;;;;;;;14.00;4.05;;;;;;;19.35;51.90;96476.72;21152069;28;20472;-56
2023/12/26 12:11:17;;;;;;;14.38;4.10;;;;;;;19.43;51.99;96456.97;21161600;28;20035;-56
2023/12/26 12:21:37;;;;;;;11.80;4.10;;;;;;;19.49;51.87;96449.44;21181037;28;20105;-57
2023/12/26 12:32:18;;;;;;;9.68;3.88;;;;;;;19.53;51.98;96458.47;21119510;28;20105;-57
2023/12/26 12:42:38;;;;;;;10.70;3.80;;;;;;;19.61;52.04;96454.88;21161921;28;20048;-56
2023/12/26 12:52:57;;;;;;;10.40;3.60;;;;;;;19.65;51.78;96465.81;21158870;28;20093;-57
2023/12/26 13:03:17;;;;;;;11.82;3.70;;;;;;;19.68;51.81;96470.53;21086622;28;20488;-57
2023/12/26 13:13:37;;;;;;;9.02;2.97;;;;;;;19.73;51.81;96473.09;21143837;28;20052;-56
2023/12/26 13:23:57;;;;;;;10.95;3.50;;;;;;;19.72;51.83;96477.72;21148962;28;20475;-59
2023/12/26 13:34:17;;;;;;;8.40;3.25;;;;;;;19.78;51.70;96491.81;21145664;28;20552;-57
2023/12/26 13:44:37;;;;;;;7.40;2.90;;;;;;;19.79;51.58;96503.41;21092756;28;20127;-56
2023/12/26 13:54:57;;;;;;;7.45;2.78;;;;;;;19.88;51.64;96510.31;21166628;27;20043;-57
2023/12/26 14:05:16;;;;;;;7.45;2.92;;;;;;;19.92;51.36;96519.31;21200599;27;20055;-57
2023/12/26 14:15:35;;;;;;;6.30;2.72;;;;;;;19.99;51.50;96539.63;21123354;28;20478;-55
2023/12/26 14:25:55;;;;;;;6.75;3.08;;;;;;;20.02;51.38;96547.09;21118916;28;20052;-58
2023/12/26 14:36:14;;;;;;;5.30;2.63;;;;;;;20.06;51.17;96556.09;21151480;28;20052;-58
2023/12/26 14:46:34;;;;;;;6.07;2.63;;;;;;;20.10;51.13;96557.78;21152499;28;20059;-57
2023/12/26 14:56:53;;;;;;;5.65;2.25;;;;;;;20.11;51.13;96575.63;21169764;28;20052;-57
2023/12/26 15:07:12;;;;;;;5.15;2.30;;;;;;;20.14;50.87;96576.84;21176822;27;20059;-57
2023/12/26 15:17:32;;;;;;;6.45;2.10;;;;;;;20.20;50.96;96594.44;21179124;27;20480;-57
2023/12/26 15:27:52;;;;;;;3.95;2.13;;;;;;;20.24;50.78;96608.09;21133394;28;20123;-58
2023/12/26 15:38:12;;;;;;;4.55;2.53;;;;;;;20.23;50.83;96628.16;21148820;28;20104;-59
2023/12/26 15:48:31;;;;;;;4.05;2.33;;;;;;;20.27;50.58;96623.69;21147628;28;20055;-57
2023/12/26 15:58:51;;;;;;;3.90;2.05;;;;;;;20.31;50.64;96643.53;21135450;28;20048;-57
2023/12/26 16:09:11;;;;;;;4.57;1.95;;;;;;;20.28;50.79;96653.09;21154032;28;20040;-57
2023/12/26 16:19:30;;;;;;;3.75;2.10;;;;;;;20.27;50.79;96659.63;21163437;28;20055;-56
2023/12/26 16:29:50;;;;;;;3.15;2.10;;;;;;;20.28;50.68;96669.31;21161092;28;20055;-57
2023/12/26 16:40:10;;;;;;;2.78;1.70;;;;;;;20.25;50.63;96697.03;21125928;28;20052;-56
2023/12/26 16:50:29;;;;;;;3.58;1.77;;;;;;;20.20;50.85;96708.06;21115591;28;20044;-57
2023/12/26 17:00:49;;;;;;;2.78;1.60;;;;;;;20.21;50.86;96715.06;21159613;28;20407;-58
2023/12/26 17:11:11;;;;;;;2.88;1.45;;;;;;;20.20;50.83;96720.78;21122083;28;20048;-59
2023/12/26 17:21:31;;;;;;;2.85;1.88;;;;;;;20.18;51.00;96726.53;21142125;28;20055;-59
2023/12/26 17:31:55;;;;;;;3.03;1.88;;;;;;;20.11;51.08;96728.97;21158173;28;20052;-58
2023/12/26 17:42:15;;;;;;;2.40;1.55;;;;;;;20.09;51.08;96750.94;21157102;28;20062;-59
2023/12/26 17:52:34;;;;;;;3.40;1.60;;;;;;;20.05;51.19;96760.84;21123296;28;20555;-57
2023/12/26 18:02:55;;;;;;;3.83;1.70;;;;;;;20.03;51.22;96775.78;21073470;28;20062;-57
2023/12/26 18:13:15;;;;;;;3.13;1.40;;;;;;;19.99;51.27;96799.19;21096943;28;20051;-57
2023/12/26 18:23:34;;;;;;;2.30;1.52;;;;;;;19.98;51.30;96809.22;21151244;28;20490;-56
2023/12/26 18:33:55;;;;;;;2.88;1.52;;;;;;;19.96;51.30;96816.88;21151478;28;20055;-56
2023/12/26 18:44:15;;;;;;;2.08;1.27;;;;;;;19.92;51.45;96822.13;21180673;27;20043;-57
2023/12/26 18:54:35;;;;;;;2.28;1.30;;;;;;;19.92;51.46;96835.66;21158075;28;20047;-56
2023/12/26 19:04:54;;;;;;;1.75;1.13;;;;;;;19.87;51.34;96852.03;21151581;28;20054;-57
2023/12/26 19:15:14;;;;;;;1.50;1.13;;;;;;;19.84;51.39;96857.34;21150888;28;20048;-57
2023/12/26 19:25:36;;;;;;;1.77;1.00;;;;;;;19.81;51.68;96861.47;21139439;28;20098;-58
2023/12/26 19:35:55;;;;;;;2.45;1.20;;;;;;;19.75;51.61;96873.56;21127729;28;20056;-59
2023/12/26 19:46:16;;;;;;;1.30;1.20;;;;;;;19.72;51.69;96880.41;21130298;28;20081;-59
2023/12/26 19:56:39;;;;;;;1.75;1.13;;;;;;;19.71;51.59;96883.41;21162599;27;20081;-59
2023/12/26 20:06:59;;;;;;;1.55;1.00;;;;;;;19.68;51.45;96902.97;21145905;27;20060;-58
2023/12/26 20:17:18;;;;;;;1.10;0.90;;;;;;;19.64;51.73;96919.06;21132283;28;20052;-59
2023/12/26 20:27:40;;;;;;;1.85;1.25;;;;;;;19.63;51.61;96930.19;21155014;28;20097;-57
2023/12/26 20:37:59;;;;;;;1.33;0.98;;;;;;;19.61;51.71;96945.91;21137543;28;20048;-56
2023/12/26 20:48:19;;;;;;;1.23;0.90;;;;;;;19.56;51.62;96944.16;21148664;28;20126;-56
2023/12/26 20:58:40;;;;;;;1.35;0.90;;;;;;;19.52;51.73;96979.16;21212631;27;20452;-57
2023/12/26 21:09:00;;;;;;;1.48;1.05;;;;;;;19.51;51.85;96984.88;21154063;28;20048;-56
2023/12/26 21:19:19;;;;;;;1.35;1.00;;;;;;;19.47;51.90;96983.94;21136485;28;20048;-57
2023/12/26 21:29:39;;;;;;;2.47;1.10;;;;;;;19.47;51.72;97006.34;21138235;28;20052;-57
2023/12/26 21:40:00;;;;;;;0.70;0.70;;;;;;;19.44;51.72;97015.06;21146498;28;20053;-58
2023/12/26 21:50:23;;;;;;;0.95;0.77;;;;;;;19.40;51.79;97033.03;21118613;28;20047;-59
2023/12/26 22:00:42;;;;;;;1.40;1.00;;;;;;;19.35;51.54;97063.69;21201980;27;20105;-59
2023/12/26 22:11:03;;;;;;;4.05;1.10;;;;;;;19.38;50.96;97077.69;21145669;27;20048;-58
2023/12/26 22:21:23;;;;;;;1.55;0.93;;;;;;;19.38;51.51;97096.59;21141601;27;20074;-59
2023/12/26 22:31:42;;;;;;;14.95;1.73;;;;;;;19.41;52.18;97104.06;21170133;27;20491;-60
2023/12/26 22:42:03;;;;;;;6.32;1.02;;;;;;;19.43;52.74;97110.75;21125512;27;20055;-59
2023/12/26 22:52:22;;;;;;;3.00;1.13;;;;;;;19.40;52.51;97119.47;21163484;27;20096;-59
2023/12/26 23:02:41;;;;;;;3.90;1.10;;;;;;;19.35;52.38;97127.75;21129947;27;20450;-60
2023/12/26 23:13:03;;;;;;;4.75;1.10;;;;;;;19.36;52.83;97140.91;21134233;27;20079;-58
2023/12/26 23:23:23;;;;;;;3.10;1.00;;;;;;;19.33;52.77;97148.88;21143251;27;20051;-58
2023/12/26 23:33:43;;;;;;;4.15;0.90;;;;;;;19.30;52.66;97168.41;21181886;27;20044;-57
2023/12/26 23:44:02;;;;;;;1.88;1.05;;;;;;;19.25;52.53;97168.53;21153336;27;20495;-58
2023/12/26 23:54:22;;;;;;;3.10;0.90;;;;;;;19.21;52.43;97164.88;21182810;27;20042;-58
